Time;durP1;ratioP1;P1;durP2;ratioP2;P2;SDS_P1;SDS_P2;PMS_P1;PMS_P2;Temp;Humidity;BMP_temperature;BMP_pressure;BME280_temperature;BME280_humidity;BME280_pressure;Samples;Min_cycle;Max_cycle;Signal;HPM_P1;HPM_P2
2021/03/23 00:00:52;;;;;;;4.05;0.52;;;3.60;99.90;;;;;;5036200;28;20025;-77
2021/03/23 00:03:25;;;;;;;4.00;0.40;;;3.60;99.90;;;;;;5018035;28;20056;-76
2021/03/23 00:05:51;;;;;;;5.10;0.50;;;3.50;99.90;;;;;;5036007;28;20043;-76
2021/03/23 00:08:28;;;;;;;2.28;0.25;;;3.50;99.90;;;;;;5035957;28;20017;-77
2021/03/23 00:10:59;;;;;;;2.92;0.40;;;3.50;99.90;;;;;;5018109;28;20509;-77
2021/03/23 00:13:25;;;;;;;2.13;0.88;;;3.60;99.90;;;;;;5036170;28;20498;-77
2021/03/23 00:15:51;;;;;;;4.32;0.52;;;3.70;99.90;;;;;;5017780;28;20032;-76
2021/03/23 00:18:17;;;;;;;2.38;0.20;;;3.80;99.90;;;;;;5035908;28;20534;-76
2021/03/23 00:20:43;;;;;;;3.05;0.85;;;3.80;99.90;;;;;;5036041;28;20028;-75
2021/03/23 00:23:10;;;;;;;10.05;1.60;;;3.90;99.90;;;;;;5018207;28;20021;-78
2021/03/23 00:25:35;;;;;;;6.15;0.70;;;3.90;99.90;;;;;;5036130;28;20102;-77
2021/03/23 00:28:01;;;;;;;12.32;1.08;;;4.00;99.90;;;;;;5035884;28;20092;-76
2021/03/23 00:30:28;;;;;;;1.88;0.50;;;4.10;99.90;;;;;;5035814;28;20037;-75
2021/03/23 00:32:53;;;;;;;4.25;1.00;;;4.20;99.90;;;;;;5035706;28;20025;-74
2021/03/23 00:35:19;;;;;;;5.07;1.40;;;4.20;99.90;;;;;;5036479;28;20156;-76
2021/03/23 00:37:54;;;;;;;4.75;1.40;;;4.30;99.90;;;;;;5018328;28;20021;-76
2021/03/23 00:40:27;;;;;;;4.95;1.40;;;4.40;99.90;;;;;;5036805;28;20030;-77
2021/03/23 00:42:53;;;;;;;6.97;0.85;;;4.50;99.90;;;;;;5018867;28;20083;-76
2021/03/23 00:45:19;;;;;;;6.47;1.33;;;4.50;99.90;;;;;;5036605;28;20034;-77
2021/03/23 00:47:45;;;;;;;5.43;1.65;;;4.60;99.90;;;;;;5034910;28;20029;-76
2021/03/23 00:50:11;;;;;;;4.07;1.40;;;4.70;99.90;;;;;;5034894;28;20029;-77
2021/03/23 00:52:37;;;;;;;3.88;1.42;;;4.70;99.90;;;;;;5034834;28;20025;-77
2021/03/23 00:55:04;;;;;;;5.43;1.92;;;4.80;99.90;;;;;;5035878;28;20013;-77
2021/03/23 00:57:29;;;;;;;5.38;2.10;;;4.80;99.90;;;;;;5035345;28;20040;-76
2021/03/23 00:59:55;;;;;;;6.22;1.33;;;4.90;99.90;;;;;;5034620;28;20037;-77
2021/03/23 01:02:21;;;;;;;6.70;2.35;;;4.90;99.90;;;;;;5017489;28;20029;-78
2021/03/23 01:04:47;;;;;;;6.60;1.70;;;5.00;99.90;;;;;;5034704;28;20029;-75
2021/03/23 01:07:12;;;;;;;4.57;1.77;;;5.00;99.90;;;;;;5017085;28;20025;-75
2021/03/23 01:09:38;;;;;;;10.23;2.85;;;5.10;99.90;;;;;;5034117;28;20344;-78
2021/03/23 01:12:06;;;;;;;5.57;2.20;;;5.10;99.90;;;;;;5035015;28;20017;-75
2021/03/23 01:14:31;;;;;;;7.43;2.28;;;5.20;99.90;;;;;;5034521;28;20105;-78
2021/03/23 01:16:57;;;;;;;10.98;2.47;;;5.20;99.90;;;;;;5034620;28;20060;-75
2021/03/23 01:19:22;;;;;;;5.40;2.72;;;5.20;99.90;;;;;;5034289;28;20490;-77
2021/03/23 01:21:51;;;;;;;5.78;2.45;;;5.30;99.90;;;;;;5016721;28;20031;-76
2021/03/23 01:24:16;;;;;;;4.70;2.15;;;5.20;99.90;;;;;;5034205;28;20017;-76
2021/03/23 01:26:42;;;;;;;7.57;2.15;;;5.40;99.90;;;;;;5015991;28;20040;-77
2021/03/23 01:29:07;;;;;;;12.32;3.35;;;5.40;99.90;;;;;;5016220;28;20434;-76
2021/03/23 01:31:33;;;;;;;6.85;2.30;;;5.40;99.90;;;;;;5034827;28;20525;-76
2021/03/23 01:33:58;;;;;;;5.95;1.95;;;5.40;99.90;;;;;;5035224;28;20482;-76
2021/03/23 01:36:24;;;;;;;9.98;3.03;;;5.50;99.90;;;;;;5017104;28;20502;-77
2021/03/23 01:38:49;;;;;;;8.20;3.15;;;5.50;99.90;;;;;;5034948;28;20095;-76
2021/03/23 01:41:15;;;;;;;7.20;1.70;;;5.50;99.90;;;;;;5017211;28;20025;-77
2021/03/23 01:43:40;;;;;;;5.50;1.95;;;5.60;99.90;;;;;;5017971;28;20459;-78
2021/03/23 01:46:39;;;;;;;9.25;2.53;;;5.60;99.90;;;;;;5017582;28;20486;-76
2021/03/23 01:49:12;;;;;;;8.95;2.65;;;7.10;99.90;;;;;;5035505;28;20052;-77
2021/03/23 01:51:38;;;;;;;8.75;2.60;;;5.60;99.90;;;;;;5034195;28;20021;-79
2021/03/23 01:54:16;;;;;;;11.80;2.70;;;5.70;99.90;;;;;;5034582;28;20021;-78
2021/03/23 01:56:44;;;;;;;8.55;2.35;;;5.70;99.90;;;;;;5020616;28;20025;-79
2021/03/23 01:59:09;;;;;;;6.93;2.00;;;5.70;99.90;;;;;;5018325;28;20057;-77
2021/03/23 02:01:37;;;;;;;8.13;2.88;;;5.70;99.90;;;;;;5019660;28;20056;-78
2021/03/23 02:04:04;;;;;;;10.95;2.70;;;5.70;99.90;;;;;;5020676;28;20022;-76
2021/03/23 02:06:37;;;;;;;11.93;3.55;;;5.70;99.90;;;;;;5063847;23;20120;-77
2021/03/23 02:09:05;;;;;;;6.38;2.25;;;5.70;99.90;;;;;;5058931;28;20359;-78
2021/03/23 02:11:34;;;;;;;8.90;2.30;;;5.60;99.90;;;;;;5055747;28;20031;-78
2021/03/23 02:14:00;;;;;;;7.95;2.53;;;5.70;99.90;;;;;;5056052;28;20425;-80
2021/03/23 02:16:26;;;;;;;8.88;2.30;;;5.70;99.90;;;;;;5054722;28;20047;-77
2021/03/23 02:18:51;;;;;;;9.38;2.90;;;5.70;99.90;;;;;;5064748;23;20040;-77
2021/03/23 02:21:33;;;;;;;10.65;2.65;;;5.70;99.90;;;;;;5037283;28;20505;-77
2021/03/23 02:23:59;;;;;;;8.27;3.17;;;5.70;99.90;;;;;;5034777;28;20033;-78
2021/03/23 02:26:31;;;;;;;9.30;3.33;;;5.70;99.90;;;;;;5015920;28;20017;-79
2021/03/23 02:28:58;;;;;;;13.20;2.97;;;5.70;99.90;;;;;;5015020;28;20033;-77
2021/03/23 02:31:31;;;;;;;10.82;2.58;;;5.70;99.90;;;;;;4998882;28;20134;-77
2021/03/23 02:33:58;;;;;;;12.43;3.15;;;5.80;99.90;;;;;;4977320;28;20494;-77
2021/03/23 02:36:27;;;;;;;10.68;3.30;;;5.80;99.90;;;;;;5005945;28;20022;-77
2021/03/23 02:38:53;;;;;;;15.07;4.35;;;5.80;99.90;;;;;;4997621;28;20049;-76
2021/03/23 02:41:19;;;;;;;12.98;3.33;;;5.80;99.90;;;;;;5014364;28;20029;-77
2021/03/23 02:43:46;;;;;;;12.07;4.63;;;5.80;99.90;;;;;;5013985;28;20077;-79
2021/03/23 02:46:12;;;;;;;9.45;4.25;;;5.80;99.90;;;;;;5014278;28;20509;-78
2021/03/23 02:48:37;;;;;;;8.18;3.40;;;5.80;99.90;;;;;;5018420;28;20026;-79
2021/03/23 02:51:07;;;;;;;10.55;3.47;;;5.80;99.90;;;;;;4985258;28;20073;-78
2021/03/23 02:53:33;;;;;;;11.23;3.90;;;5.80;99.90;;;;;;4979679;28;20082;-78
2021/03/23 02:55:58;;;;;;;18.85;4.38;;;5.70;99.90;;;;;;4998639;28;20046;-79
2021/03/23 02:58:24;;;;;;;11.65;3.80;;;5.70;99.90;;;;;;4997814;28;20018;-77
2021/03/23 03:00:50;;;;;;;9.35;3.83;;;5.60;99.90;;;;;;4985246;28;20034;-77
2021/03/23 03:03:16;;;;;;;14.77;5.70;;;5.60;99.90;;;;;;5006380;28;20464;-78
2021/03/23 03:05:43;;;;;;;11.45;4.93;;;5.60;99.90;;;;;;5007892;28;20038;-80
2021/03/23 03:08:09;;;;;;;12.05;4.70;;;5.60;99.90;;;;;;4996947;28;20415;-77
2021/03/23 03:10:34;;;;;;;18.38;5.97;;;5.60;99.90;;;;;;4998730;28;20018;-80
2021/03/23 03:13:02;;;;;;;16.65;5.97;;;5.60;99.90;;;;;;5010906;28;20052;-79
2021/03/23 03:15:30;;;;;;;15.15;5.72;;;5.60;99.90;;;;;;5010725;28;20022;-79
2021/03/23 03:17:56;;;;;;;9.98;4.53;;;5.60;99.90;;;;;;5021013;28;20022;-77
2021/03/23 03:20:23;;;;;;;13.20;5.55;;;5.60;99.90;;;;;;4993827;28;20034;-78
2021/03/23 03:22:48;;;;;;;12.93;5.53;;;5.60;99.90;;;;;;5012134;28;20029;-78
2021/03/23 03:25:16;;;;;;;17.95;6.35;;;5.60;99.90;;;;;;5017229;28;20022;-77
2021/03/23 03:27:42;;;;;;;15.85;6.18;;;5.60;99.90;;;;;;5001835;28;20026;-80
2021/03/23 03:30:28;;;;;;;15.50;5.45;;;5.60;99.90;;;;;;4986396;28;20023;-77
2021/03/23 03:32:55;;;;;;;21.35;6.93;;;5.60;99.90;;;;;;4988718;28;20040;-77
2021/03/23 03:35:26;;;;;;;18.92;6.43;;;5.70;99.90;;;;;;5017595;28;20028;-77
2021/03/23 03:37:52;;;;;;;16.60;5.68;;;5.70;99.90;;;;;;5002420;28;20030;-80
2021/03/23 03:40:22;;;;;;;16.77;7.38;;;5.60;99.90;;;;;;5001417;28;20053;-76
2021/03/23 03:42:48;;;;;;;19.38;7.60;;;5.60;99.90;;;;;;5014684;28;20023;-79
2021/03/23 03:45:14;;;;;;;15.40;6.13;;;5.60;99.90;;;;;;5019195;28;20030;-80
2021/03/23 03:47:40;;;;;;;21.70;7.90;;;5.60;99.90;;;;;;5020801;28;20387;-78
2021/03/23 03:50:07;;;;;;;14.73;6.20;;;5.60;99.90;;;;;;5021722;28;20046;-77
2021/03/23 03:52:33;;;;;;;14.60;6.30;;;5.60;99.90;;;;;;5016557;28;20073;-77
2021/03/23 03:54:58;;;;;;;19.92;7.25;;;5.60;99.90;;;;;;4982286;28;20542;-76
2021/03/23 03:57:24;;;;;;;17.83;6.43;;;5.60;99.90;;;;;;4983611;28;20035;-79
2021/03/23 03:59:50;;;;;;;16.90;6.20;;;5.50;99.90;;;;;;4998527;28;20061;-76
2021/03/23 04:02:15;;;;;;;17.77;7.05;;;5.50;99.90;;;;;;5000207;28;20056;-78
2021/03/23 04:04:44;;;;;;;15.25;6.43;;;5.50;99.90;;;;;;5013611;28;20498;-78
2021/03/23 04:07:09;;;;;;;22.55;7.38;;;5.50;99.90;;;;;;5001897;28;20034;-78
2021/03/23 04:09:35;;;;;;;20.48;7.32;;;5.50;99.90;;;;;;5000086;28;20026;-78
2021/03/23 04:12:01;;;;;;;17.58;6.82;;;5.50;99.90;;;;;;5003616;28;20037;-76
2021/03/23 04:14:26;;;;;;;17.63;6.72;;;5.50;99.90;;;;;;5016507;28;20494;-76
2021/03/23 04:16:52;;;;;;;20.05;7.40;;;5.50;99.90;;;;;;4989112;28;20449;-78
2021/03/23 04:19:17;;;;;;;20.02;7.40;;;5.40;99.90;;;;;;4985026;28;20022;-78
2021/03/23 04:21:43;;;;;;;19.85;8.25;;;5.40;99.90;;;;;;5015878;28;20030;-77
2021/03/23 04:24:09;;;;;;;24.23;8.82;;;5.40;99.90;;;;;;5000105;28;20033;-78
2021/03/23 04:26:34;;;;;;;26.10;8.25;;;5.40;99.90;;;;;;5021917;28;20026;-77
2021/03/23 04:29:00;;;;;;;19.73;6.93;;;5.50;99.90;;;;;;5017656;28;20202;-76
2021/03/23 04:31:34;;;;;;;22.45;7.88;;;5.50;99.90;;;;;;4999891;28;20018;-78
2021/03/23 04:34:00;;;;;;;29.98;9.68;;;5.50;99.90;;;;;;4998664;28;20037;-76
2021/03/23 04:36:26;;;;;;;19.48;7.82;;;5.50;99.90;;;;;;5016585;28;20386;-77
2021/03/23 04:38:52;;;;;;;27.98;9.50;;;5.50;99.90;;;;;;5049585;23;20048;-77
2021/03/23 04:41:18;;;;;;;22.55;8.40;;;5.50;99.90;;;;;;5033539;28;20084;-76
2021/03/23 04:43:47;;;;;;;19.27;8.10;;;5.50;99.90;;;;;;5036024;28;20028;-77
2021/03/23 04:46:13;;;;;;;;;;;5.60;99.90;;;;;;5037828;28;20081;-76
2021/03/23 04:48:38;;;;;;;18.63;7.63;;;5.60;99.90;;;;;;5037908;28;19913;-77
2021/03/23 04:51:07;;;;;;;23.67;8.73;;;5.60;99.90;;;;;;5036173;28;20475;-77
2021/03/23 04:53:35;;;;;;;20.48;8.48;;;5.60;99.90;;;;;;5029171;28;20073;-75
2021/03/23 04:56:02;;;;;;;23.42;9.70;;;5.60;99.90;;;;;;5034579;28;20569;-76
2021/03/23 04:58:28;;;;;;;19.52;9.70;;;5.60;99.90;;;;;;5037880;28;20024;-77
2021/03/23 05:00:56;;;;;;;28.30;10.43;;;5.70;99.90;;;;;;5037964;28;20112;-78
2021/03/23 05:03:28;;;;;;;22.83;9.97;;;5.70;99.90;;;;;;5035197;28;20034;-80
2021/03/23 05:05:55;;;;;;;24.83;9.73;;;5.70;99.90;;;;;;5033432;28;20268;-77
2021/03/23 05:08:22;;;;;;;24.52;10.73;;;5.70;99.90;;;;;;5034750;28;20478;-77
2021/03/23 05:10:47;;;;;;;25.73;10.40;;;5.70;99.90;;;;;;5036150;28;20108;-78
2021/03/23 05:13:13;;;;;;;28.23;11.75;;;5.80;99.90;;;;;;5039990;28;20071;-78
2021/03/23 05:15:39;;;;;;;26.67;11.15;;;5.80;99.90;;;;;;5038286;28;20029;-77
2021/03/23 05:18:05;;;;;;;28.38;12.30;;;5.80;99.90;;;;;;5035966;28;20039;-76
2021/03/23 05:20:30;;;;;;;33.08;12.10;;;5.70;99.90;;;;;;5035320;28;20028;-78
2021/03/23 05:22:56;;;;;;;32.58;13.40;;;5.70;99.90;;;;;;5036861;28;20068;-79
2021/03/23 05:25:22;;;;;;;30.23;12.18;;;5.60;99.90;;;;;;5033500;28;20076;-76
2021/03/23 05:27:47;;;;;;;36.35;13.13;;;5.50;99.90;;;;;;5033023;28;20029;-76
2021/03/23 05:30:14;;;;;;;33.72;13.60;;;5.50;99.90;;;;;;5034715;28;20017;-77
2021/03/23 05:32:40;;;;;;;39.88;14.27;;;5.50;99.90;;;;;;5037335;28;20029;-77
2021/03/23 05:35:07;;;;;;;32.92;13.50;;;5.40;99.90;;;;;;5038799;28;20021;-77
2021/03/23 05:37:33;;;;;;;35.95;13.98;;;5.30;99.90;;;;;;5036750;28;20486;-77
2021/03/23 05:39:59;;;;;;;41.42;14.68;;;5.30;99.90;;;;;;5038868;28;20031;-78
2021/03/23 05:42:35;;;;;;;33.47;13.57;;;5.30;99.90;;;;;;5038119;28;20026;-78
2021/03/23 05:45:18;;;;;;;37.55;14.57;;;5.40;99.90;;;;;;5038504;28;20108;-76
2021/03/23 05:48:01;;;;;;;39.53;15.32;;;5.50;99.90;;;;;;5035320;28;20028;-77
2021/03/23 05:50:33;;;;;;;40.95;16.13;;;5.50;99.90;;;;;;5034388;28;20036;-76
2021/03/23 05:53:12;;;;;;;48.72;16.48;;;5.70;99.90;;;;;;5037488;28;20021;-78
2021/03/23 05:55:46;;;;;;;38.58;14.48;;;5.70;99.90;;;;;;5034101;28;20030;-77
2021/03/23 05:58:19;;;;;;;46.85;17.83;;;5.70;99.90;;;;;;5034577;28;20438;-78
2021/03/23 06:00:55;;;;;;;46.65;18.38;;;5.80;99.90;;;;;;5036442;28;20029;-79
2021/03/23 06:03:53;;;;;;;55.90;18.77;;;5.80;99.90;;;;;;5034753;28;20493;-76
2021/03/23 06:06:48;;;;;;;47.55;17.58;;;5.90;99.90;;;;;;5031984;28;20041;-76
2021/03/23 06:09:15;;;;;;;52.25;18.50;;;5.90;99.90;;;;;;5034148;28;20384;-76
2021/03/23 06:11:41;;;;;;;53.67;17.75;;;6.00;99.90;;;;;;5034850;28;20047;-77
2021/03/23 06:14:22;;;;;;;48.35;19.70;;;6.00;99.90;;;;;;5048090;23;20045;-77
2021/03/23 06:16:55;;;;;;;51.75;18.02;;;6.00;99.90;;;;;;5034733;28;20029;-77
2021/03/23 06:19:54;;;;;;;65.93;20.02;;;6.00;99.90;;;;;;5034177;28;20029;-76
2021/03/23 06:22:26;;;;;;;62.88;19.10;;;6.10;99.90;;;;;;5035207;28;20047;-78
2021/03/23 06:25:22;;;;;;;67.47;22.10;;;6.00;99.90;;;;;;5033679;28;20030;-74
2021/03/23 06:27:55;;;;;;;69.25;22.45;;;6.00;99.90;;;;;;5034076;28;20036;-74
2021/03/23 06:30:57;;;;;;;61.08;21.83;;;6.00;99.90;;;;;;5034114;28;20021;-74
2021/03/23 06:33:26;;;;;;;71.57;25.38;;;6.10;99.90;;;;;;5032039;28;20390;-73
2021/03/23 06:36:02;;;;;;;71.10;23.25;;;9.00;99.90;;;;;;5035285;28;20029;-72
2021/03/23 06:38:29;;;;;;;78.82;25.55;;;6.00;99.90;;;;;;5034849;28;20080;-72
2021/03/23 06:41:07;;;;;;;75.88;25.88;;;6.30;99.90;;;;;;5033080;28;20116;-75
2021/03/23 06:43:34;;;;;;;90.63;28.95;;;6.00;99.90;;;;;;5033016;28;20033;-73
2021/03/23 06:46:02;;;;;;;80.68;26.90;;;6.00;99.90;;;;;;5035891;28;20097;-75
2021/03/23 06:48:31;;;;;;;77.82;27.98;;;6.00;99.90;;;;;;5037041;28;20090;-73
2021/03/23 06:51:13;;;;;;;80.97;26.15;;;6.00;99.90;;;;;;5036743;28;20061;-72
2021/03/23 06:53:39;;;;;;;78.78;25.65;;;6.00;99.90;;;;;;5038772;28;20112;-75
2021/03/23 06:56:16;;;;;;;83.95;26.73;;;6.00;99.90;;;;;;5037349;28;20026;-73
2021/03/23 06:58:43;;;;;;;80.95;26.33;;;6.00;99.90;;;;;;5037363;28;20017;-74
2021/03/23 07:01:17;;;;;;;77.82;24.20;;;6.00;99.90;;;;;;5036541;28;20116;-74
2021/03/23 07:03:51;;;;;;;84.32;27.38;;;6.00;99.90;;;;;;5049344;23;20094;-74
2021/03/23 07:06:29;;;;;;;79.60;24.45;;;6.10;99.90;;;;;;5037148;28;20029;-77
2021/03/23 07:09:09;;;;;;;76.13;24.27;;;6.10;99.90;;;;;;5017036;28;20045;-73
2021/03/23 07:12:03;;;;;;;83.60;25.20;;;6.20;99.90;;;;;;5017822;28;20026;-75
2021/03/23 07:14:36;;;;;;;69.38;23.92;;;6.20;99.90;;;;;;5019224;28;20479;-76
2021/03/23 07:17:14;;;;;;;81.22;25.70;;;6.30;99.90;;;;;;5019046;28;20471;-76
2021/03/23 07:20:06;;;;;;;76.63;24.33;;;6.40;99.90;;;;;;5004022;28;20113;-78
2021/03/23 07:22:52;;;;;;;78.15;23.67;;;6.50;99.90;;;;;;5000163;28;20545;-76
2021/03/23 07:25:47;;;;;;;81.10;25.38;;;6.50;99.90;;;;;;4999012;28;20113;-76
2021/03/23 07:28:37;;;;;;;81.13;26.83;;;6.60;99.90;;;;;;4984198;28;20035;-77
2021/03/23 07:31:31;;;;;;;75.47;24.52;;;6.60;99.90;;;;;;5011253;28;20479;-76
2021/03/23 07:34:16;;;;;;;71.38;22.95;;;6.60;99.90;;;;;;5013541;28;20184;-76
2021/03/23 07:36:53;;;;;;;79.95;24.02;;;6.60;99.90;;;;;;5017270;28;20029;-77
2021/03/23 07:40:00;;;;;;;75.05;24.52;;;6.70;99.90;;;;;;5016451;28;20017;-77
2021/03/23 07:42:40;;;;;;;73.18;22.63;;;6.70;99.90;;;;;;5013929;28;20400;-74
2021/03/23 07:45:27;;;;;;;71.05;23.55;;;6.80;99.90;;;;;;5016988;28;20395;-76
2021/03/23 07:48:12;;;;;;;75.45;23.10;;;6.80;99.90;;;;;;4995977;28;20141;-76
2021/03/23 07:50:43;;;;;;;69.68;23.08;;;6.90;99.90;;;;;;4997175;28;20387;-74
2021/03/23 07:53:31;;;;;;;65.43;22.45;;;7.00;99.90;;;;;;4999227;28;20473;-76
2021/03/23 07:56:12;;;;;;;77.38;23.20;;;7.10;99.90;;;;;;4995519;28;20038;-74
2021/03/23 07:58:56;;;;;;;78.03;23.38;;;7.10;99.90;;;;;;5002232;28;20026;-77
2021/03/23 08:01:58;;;;;;;74.38;24.05;;;7.10;99.90;;;;;;4995177;28;20034;-73
2021/03/23 08:04:41;;;;;;;68.95;21.25;;;7.10;99.90;;;;;;4997020;28;20053;-76
2021/03/23 08:07:20;;;;;;;72.25;24.00;;;7.30;99.90;;;;;;5011656;28;20117;-75
2021/03/23 08:10:14;;;;;;;68.30;23.95;;;7.40;99.90;;;;;;5016895;28;20472;-75
2021/03/23 08:16:07;;;;;;;69.82;23.27;;;7.70;99.90;;;;;;5054909;28;20052;-78
2021/03/23 08:18:58;;;;;;;72.32;24.05;;;7.70;99.90;;;;;;5054954;28;20056;-79
2021/03/23 08:21:46;;;;;;;60.55;23.23;;;7.80;99.90;;;;;;5040402;28;20026;-76
2021/03/23 08:24:18;;;;;;;59.50;19.27;;;7.70;99.90;;;;;;5054083;28;20115;-76
2021/03/23 08:29:30;;;;;;;67.70;22.10;;;7.60;99.90;;;;;;5041303;28;20045;-76
2021/03/23 08:32:10;;;;;;;61.63;20.60;;;7.60;99.90;;;;;;5036309;28;20116;-76
2021/03/23 08:34:41;;;;;;;57.95;18.98;;;7.60;99.90;;;;;;5034819;28;20017;-76
2021/03/23 08:37:37;;;;;;;61.40;20.45;;;7.50;99.90;;;;;;5029466;28;20103;-76
2021/03/23 08:40:27;;;;;;;55.28;20.55;;;7.40;99.90;;;;;;5030531;23;20124;-78
2021/03/23 08:42:53;;;;;;;63.83;20.83;;;7.40;99.90;;;;;;5035606;28;20037;-76
2021/03/23 08:45:41;;;;;;;57.15;20.23;;;7.50;99.90;;;;;;5034866;28;20018;-76
2021/03/23 08:48:34;;;;;;;62.60;19.85;;;7.60;99.90;;;;;;5024722;28;20044;-76
2021/03/23 08:51:05;;;;;;;57.20;20.52;;;7.60;99.90;;;;;;4999642;28;20387;-75
2021/03/23 08:53:34;;;;;;;52.10;19.48;;;7.60;99.90;;;;;;5016241;28;20022;-76
2021/03/23 08:56:03;;;;;;;60.40;21.23;;;7.70;99.90;;;;;;4998904;28;20114;-76
2021/03/23 08:58:49;;;;;;;52.92;18.80;;;7.80;99.90;;;;;;5029895;28;20018;-78
2021/03/23 09:01:40;;;;;;;68.32;21.33;;;7.80;99.90;;;;;;5037027;28;20029;-76
2021/03/23 09:06:53;;;;;;;61.00;20.35;;;8.00;99.90;;;;;;5010426;28;20053;-78
2021/03/23 09:09:25;;;;;;;56.28;20.02;;;8.10;99.90;;;;;;5018064;28;20028;-78
2021/03/23 09:12:04;;;;;;;60.28;20.10;;;8.20;99.90;;;;;;5034952;28;20545;-77
2021/03/23 09:14:31;;;;;;;;;;;8.40;99.90;;;;;;5017658;28;20026;-77
2021/03/23 09:16:59;;;;;;;47.33;16.50;;;8.40;99.90;;;;;;5032636;28;19916;-77
2021/03/23 09:19:42;;;;;;;64.07;19.48;;;8.40;99.90;;;;;;5016717;28;20444;-78
2021/03/23 09:22:16;;;;;;;57.83;18.67;;;8.50;99.90;;;;;;5016757;28;20072;-78
2021/03/23 09:24:43;;;;;;;58.05;18.75;;;8.50;99.90;;;;;;5016699;28;20120;-77
2021/03/23 09:27:31;;;;;;;52.97;18.73;;;8.60;99.90;;;;;;5029263;28;20026;-77
2021/03/23 09:29:57;;;;;;;55.22;20.38;;;8.70;99.90;;;;;;4986445;28;20376;-77
2021/03/23 09:32:28;;;;;;;49.53;17.52;;;8.70;99.90;;;;;;5011384;28;20071;-78
2021/03/23 09:37:38;;;;;;;50.88;17.40;;;8.60;99.90;;;;;;5020019;28;20057;-75
2021/03/23 09:40:19;;;;;;;54.20;19.80;;;8.50;99.90;;;;;;5014706;28;20049;-76
2021/03/23 09:43:21;;;;;;;53.92;17.98;;;8.50;99.90;;;;;;4996834;28;20117;-77
2021/03/23 09:45:49;;;;;;;58.00;20.15;;;8.50;99.90;;;;;;4998517;28;20030;-78
2021/03/23 09:48:21;;;;;;;52.58;19.45;;;8.50;99.90;;;;;;4996916;28;20057;-77
2021/03/23 09:50:53;;;;;;;50.03;19.10;;;8.60;99.90;;;;;;5020342;28;20034;-77
2021/03/23 09:53:41;;;;;;;51.25;18.25;;;8.60;99.90;;;;;;5012670;28;20021;-77
2021/03/23 09:56:15;;;;;;;49.55;16.83;;;8.70;99.90;;;;;;4996583;28;20443;-76
2021/03/23 09:58:41;;;;;;;53.03;18.60;;;8.80;99.90;;;;;;4996764;28;20422;-77
2021/03/23 10:01:13;;;;;;;47.80;18.25;;;8.80;99.90;;;;;;4996961;28;20072;-77
2021/03/23 10:03:38;;;;;;;47.05;17.40;;;8.90;99.90;;;;;;4996483;28;20380;-77
2021/03/23 10:06:35;;;;;;;46.63;19.95;;;9.00;99.90;;;;;;5014487;28;20091;-77
2021/03/23 10:09:08;;;;;;;46.05;16.48;;;8.90;99.90;;;;;;4999275;28;20088;-77
2021/03/23 10:11:41;;;;;;;49.05;19.00;;;9.10;99.90;;;;;;5001329;28;20022;-77
2021/03/23 10:14:11;;;;;;;52.90;19.17;;;9.20;99.90;;;;;;5019095;28;20028;-78
2021/03/23 10:16:39;;;;;;;47.03;19.10;;;9.30;99.90;;;;;;5031807;28;20033;-77
2021/03/23 10:19:12;;;;;;;45.55;19.13;;;9.30;99.90;;;;;;5033679;28;20072;-76
2021/03/23 10:21:45;;;;;;;50.13;19.73;;;9.30;99.90;;;;;;5031144;28;20029;-77
2021/03/23 10:24:25;;;;;;;44.67;17.35;;;9.30;99.90;;;;;;5033707;28;20550;-76
2021/03/23 10:26:54;;;;;;;47.90;18.58;;;9.40;99.90;;;;;;5030834;28;20085;-77
2021/03/23 10:30:49;;;;;;;62.15;18.63;;;9.50;99.90;;;;;;5023210;23;20468;-76
2021/03/23 10:33:28;;;;;;;44.33;17.83;;;6.80;99.90;;;;;;4941704;28;20382;-76
2021/03/23 10:35:57;;;;;;;54.88;17.98;;;9.30;99.90;;;;;;4955898;28;20039;-76
2021/03/23 10:38:29;;;;;;;55.47;20.63;;;8.70;99.90;;;;;;5013574;28;20506;-77
2021/03/23 10:40:57;;;;;;;49.92;17.27;;;9.40;99.90;;;;;;5012936;28;20057;-75
2021/03/23 10:43:35;;;;;;;43.30;18.40;;;9.30;99.90;;;;;;5025875;28;20026;-77
2021/03/23 10:46:04;;;;;;;49.22;19.25;;;9.10;99.90;;;;;;5031541;28;20029;-75
2021/03/23 10:51:10;;;;;;;49.80;19.02;;;9.60;99.90;;;;;;5012707;28;20069;-78
2021/03/23 10:53:38;;;;;;;44.55;19.08;;;9.40;99.90;;;;;;5001928;28;20031;-77
2021/03/23 10:56:22;;;;;;;47.00;18.48;;;9.80;99.90;;;;;;4994697;28;20030;-75
2021/03/23 10:59:07;;;;;;;48.67;18.90;;;10.00;99.90;;;;;;4994685;28;20042;-77
2021/03/23 11:01:34;;;;;;;53.08;18.85;;;11.50;99.90;;;;;;4994887;28;20023;-76
2021/03/23 11:04:18;;;;;;;47.10;19.60;;;10.50;99.90;;;;;;5002573;28;20079;-77
2021/03/23 11:06:47;;;;;;;53.15;19.17;;;12.50;99.90;;;;;;5006212;23;20053;-76
2021/03/23 11:09:32;;;;;;;44.28;17.38;;;10.60;99.90;;;;;;5012357;28;20018;-77
2021/03/23 11:12:19;;;;;;;47.10;16.25;;;10.60;99.90;;;;;;5014498;28;20018;-75
2021/03/23 11:15:05;;;;;;;;;;;;;;;;;;;;;
2021/03/23 11:17:46;;;;;;;;;;;;;;;;;;;;;
2021/03/23 11:20:23;;;;;;;48.72;18.88;;;10.20;99.90;;;;;;5020394;28;20105;-78
2021/03/23 11:22:56;;;;;;;50.75;19.17;;;9.90;99.90;;;;;;5012093;28;20029;-78
2021/03/23 11:25:25;;;;;;;49.15;19.15;;;12.00;99.90;;;;;;5017893;28;20121;-77
2021/03/23 11:27:51;;;;;;;;;;;10.80;99.90;;;;;;5013776;28;20376;-76
2021/03/23 11:30:20;;;;;;;41.58;17.10;;;10.50;99.90;;;;;;5013256;28;19905;-77
2021/03/23 11:32:46;;;;;;;48.17;19.13;;;10.70;99.90;;;;;;5012236;28;20022;-76
2021/03/23 11:35:13;;;;;;;41.92;18.05;;;10.70;99.90;;;;;;5014889;28;20014;-76
2021/03/23 11:37:39;;;;;;;44.17;18.55;;;10.80;99.90;;;;;;5014993;28;20029;-75
2021/03/23 11:40:06;;;;;;;39.72;17.63;;;10.80;99.90;;;;;;5016755;28;20026;-75
2021/03/23 11:42:47;;;;;;;44.70;17.60;;;10.70;99.90;;;;;;5015072;28;20479;-75
2021/03/23 11:45:43;;;;;;;44.72;19.23;;;10.70;99.90;;;;;;5015757;28;20471;-77
2021/03/23 11:48:12;;;;;;;39.58;17.83;;;10.70;99.90;;;;;;4981212;28;20050;-77
2021/03/23 11:50:40;;;;;;;42.90;16.88;;;10.80;99.90;;;;;;5005165;28;20057;-77
2021/03/23 11:53:06;;;;;;;41.95;17.75;;;10.50;99.90;;;;;;5010923;28;20061;-77
2021/03/23 11:55:38;;;;;;;52.40;19.20;;;10.40;99.90;;;;;;5036385;23;20037;-78
2021/03/23 11:58:04;;;;;;;50.65;18.00;;;10.40;99.90;;;;;;5027122;28;20033;-77
2021/03/23 12:00:31;;;;;;;45.88;18.77;;;10.30;99.90;;;;;;5022234;28;20029;-76
2021/03/23 12:03:00;;;;;;;43.63;17.55;;;10.40;99.90;;;;;;5025117;23;20048;-77
2021/03/23 12:05:27;;;;;;;44.20;18.00;;;10.50;99.90;;;;;;4980175;28;20065;-77
2021/03/23 12:08:21;;;;;;;43.33;17.73;;;10.50;99.90;;;;;;4997776;28;20027;-76
2021/03/23 12:11:11;;;;;;;37.30;16.42;;;10.60;99.90;;;;;;5008161;28;20025;-76
2021/03/23 12:14:10;;;;;;;37.55;16.73;;;10.50;99.90;;;;;;5008522;28;20030;-77
2021/03/23 12:16:54;;;;;;;38.78;16.15;;;10.50;99.90;;;;;;4995874;28;20080;-77
2021/03/23 12:19:27;;;;;;;38.70;16.88;;;10.70;99.90;;;;;;4996372;28;20029;-76
2021/03/23 12:21:53;;;;;;;40.72;16.52;;;10.80;99.90;;;;;;4996011;28;20511;-77
2021/03/23 12:24:21;;;;;;;40.15;17.10;;;10.90;99.90;;;;;;4996483;28;20026;-77
2021/03/23 12:26:47;;;;;;;40.67;17.90;;;11.00;99.90;;;;;;5007780;28;20502;-74
2021/03/23 12:29:13;;;;;;;43.28;17.55;;;11.00;99.90;;;;;;5015711;28;20018;-75
2021/03/23 12:31:39;;;;;;;46.03;18.90;;;11.00;99.90;;;;;;5015722;28;20022;-77
2021/03/23 12:34:05;;;;;;;42.72;16.98;;;10.70;99.90;;;;;;5014864;28;20041;-75
2021/03/23 12:36:31;;;;;;;42.50;17.52;;;10.60;99.90;;;;;;5015502;28;20021;-78
2021/03/23 12:38:56;;;;;;;44.28;18.85;;;10.60;99.90;;;;;;5008885;28;20015;-76
2021/03/23 12:41:38;;;;;;;40.63;17.40;;;10.50;99.90;;;;;;5012422;28;20072;-76
2021/03/23 12:44:05;;;;;;;45.13;18.75;;;10.40;99.90;;;;;;5003125;28;20031;-77
2021/03/23 12:46:35;;;;;;;40.50;17.33;;;10.30;99.90;;;;;;5044669;23;20041;-76
2021/03/23 12:49:01;;;;;;;40.28;17.17;;;9.40;99.90;;;;;;5016736;28;20053;-76
2021/03/23 12:51:46;;;;;;;37.78;16.70;;;11.60;99.90;;;;;;5086831;23;20057;-76
2021/03/23 12:54:30;;;;;;;35.45;17.85;;;10.50;99.90;;;;;;4998454;28;20023;-74
2021/03/23 12:57:25;;;;;;;40.55;18.40;;;10.50;99.90;;;;;;4999868;28;20057;-75
2021/03/23 12:59:54;;;;;;;41.40;18.23;;;10.50;99.90;;;;;;4997132;28;20120;-78
2021/03/23 13:02:23;;;;;;;45.38;17.55;;;10.40;99.90;;;;;;5017020;28;20495;-75
2021/03/23 13:05:02;;;;;;;39.50;16.92;;;10.50;99.90;;;;;;5020118;23;20137;-77
2021/03/23 13:07:37;;;;;;;48.95;18.55;;;10.40;99.90;;;;;;5035416;28;20394;-76
2021/03/23 13:10:10;;;;;;;45.50;17.75;;;10.60;99.90;;;;;;5035988;28;20021;-76
2021/03/23 13:12:38;;;;;;;45.95;17.13;;;10.80;99.90;;;;;;5035696;28;20069;-76
2021/03/23 13:15:04;;;;;;;45.10;18.30;;;10.70;99.90;;;;;;5047555;22;20103;-76
2021/03/23 13:17:32;;;;;;;48.90;20.45;;;10.70;99.90;;;;;;5017120;28;20064;-77
2021/03/23 13:19:58;;;;;;;43.25;18.17;;;10.10;99.90;;;;;;5016606;28;20466;-76
2021/03/23 13:22:34;;;;;;;40.95;18.50;;;10.70;99.90;;;;;;5035729;28;20025;-77
2021/03/23 13:26:03;;;;;;;;;;;;;;;;;;;;;
2021/03/23 13:28:52;;;;;;;44.22;18.60;;;10.60;99.90;;;;;;5037868;23;20178;-77